Time;durP1;ratioP1;P1;durP2;ratioP2;P2;SDS_P1;SDS_P2;PMS_P1;PMS_P2;Temp;Humidity;BMP_temperature;BMP_pressure;BME280_temperature;BME280_humidity;BME280_pressure;Samples;Min_cycle;Max_cycle;Signal;HPM_P1;HPM_P2
2021/09/30 00:00:33;;;;;;;9.32;2.13;;;10.80;99.90;;;;;;5067718;28;25051;-61
2021/09/30 00:02:58;;;;;;;12.25;2.83;;;10.80;99.90;;;;;;5061852;28;25142;-61
2021/09/30 00:05:25;;;;;;;10.68;2.05;;;10.90;99.90;;;;;;5064309;28;25094;-60
2021/09/30 00:07:51;;;;;;;13.88;2.80;;;10.80;99.90;;;;;;5063386;28;25098;-61
2021/09/30 00:10:20;;;;;;;16.60;2.72;;;10.80;99.90;;;;;;5065786;28;25153;-60
2021/09/30 00:12:51;;;;;;;12.65;2.13;;;10.80;99.90;;;;;;5063537;28;25056;-60
2021/09/30 00:50:26;;;;;;;15.90;2.47;;;11.00;99.90;;;;;;5065997;28;25056;-60
2021/09/30 00:53:27;;;;;;;8.50;2.92;;;11.00;99.90;;;;;;5062276;28;25158;-59
2021/09/30 01:19:52;;;;;;;13.02;2.13;;;10.70;99.90;;;;;;5063930;28;25133;-61
2021/09/30 01:33:59;;;;;;;14.05;2.50;;;10.70;99.90;;;;;;5061810;28;25054;-60
2021/09/30 01:52:59;;;;;;;8.50;2.03;;;10.80;99.90;;;;;;5066284;28;25052;-60
2021/09/30 02:23:22;;;;;;;9.73;1.52;;;11.00;99.90;;;;;;5066103;28;25075;-60
2021/09/30 02:28:39;;;;;;;10.45;2.22;;;10.90;99.90;;;;;;5067092;28;25064;-61
2021/09/30 02:58:58;;;;;;;14.35;2.40;;;10.70;99.90;;;;;;5066389;28;25104;-60
2021/09/30 03:01:28;;;;;;;10.70;1.92;;;10.70;99.90;;;;;;5067345;28;25151;-61
2021/09/30 03:03:56;;;;;;;12.73;2.25;;;10.80;99.90;;;;;;5036908;28;25075;-60
2021/09/30 03:06:22;;;;;;;18.83;2.42;;;10.90;99.90;;;;;;5058723;28;25119;-60
2021/09/30 03:08:51;;;;;;;10.63;1.80;;;10.90;99.90;;;;;;5059570;28;25147;-60
2021/09/30 03:11:20;;;;;;;11.57;2.45;;;10.80;99.90;;;;;;5055894;28;25171;-60
2021/09/30 03:13:48;;;;;;;13.80;2.47;;;10.70;99.90;;;;;;5049921;28;25074;-61
2021/09/30 03:16:26;;;;;;;14.70;2.20;;;10.70;99.90;;;;;;5055125;28;25052;-61
2021/09/30 03:18:59;;;;;;;14.63;2.22;;;10.60;99.90;;;;;;5062094;28;25063;-62
2021/09/30 03:24:12;;;;;;;11.85;1.80;;;10.60;99.90;;;;;;5066317;28;25104;-61
2021/09/30 03:26:38;;;;;;;15.02;2.28;;;10.50;99.90;;;;;;5064473;28;25057;-60
2021/09/30 03:29:04;;;;;;;8.40;1.80;;;10.50;99.90;;;;;;5063001;28;25082;-61
2021/09/30 03:31:32;;;;;;;13.65;2.10;;;10.40;99.90;;;;;;5063496;28;25064;-60
2021/09/30 03:33:59;;;;;;;12.80;2.15;;;10.40;99.90;;;;;;5064737;28;25095;-61
2021/09/30 03:36:25;;;;;;;12.02;2.75;;;10.50;99.90;;;;;;5065971;28;25097;-61
2021/09/30 03:38:51;;;;;;;17.23;2.25;;;10.40;99.90;;;;;;5065504;28;25102;-60
2021/09/30 03:41:17;;;;;;;7.63;1.90;;;10.30;99.90;;;;;;5057540;28;25065;-61
2021/09/30 03:43:42;;;;;;;10.30;1.92;;;10.30;99.90;;;;;;5055857;28;25114;-60
2021/09/30 03:46:08;;;;;;;11.07;2.80;;;10.40;99.90;;;;;;5062274;28;25154;-60
2021/09/30 03:48:34;;;;;;;11.32;1.85;;;10.40;99.90;;;;;;5053026;28;25165;-61
2021/09/30 04:01:06;;;;;;;13.75;3.15;;;10.60;99.90;;;;;;5054487;28;25068;-60
2021/09/30 04:03:32;;;;;;;13.82;2.33;;;10.50;99.90;;;;;;5054997;28;25072;-60
2021/09/30 04:05:57;;;;;;;12.13;2.53;;;10.50;99.90;;;;;;5031090;28;25114;-61
2021/09/30 04:08:23;;;;;;;9.68;1.92;;;10.60;99.90;;;;;;5059484;28;25083;-61
2021/09/30 04:10:49;;;;;;;13.27;2.35;;;10.60;99.90;;;;;;5055591;28;25109;-61
2021/09/30 04:13:14;;;;;;;17.70;2.10;;;10.60;99.90;;;;;;5057860;28;25104;-60
2021/09/30 04:15:40;;;;;;;8.73;1.90;;;10.60;99.90;;;;;;5065593;28;25078;-61
2021/09/30 04:18:06;;;;;;;12.45;2.45;;;10.70;99.90;;;;;;5064648;28;24972;-61
2021/09/30 04:20:32;;;;;;;11.23;2.00;;;10.70;99.90;;;;;;5067765;28;25070;-61
2021/09/30 04:23:00;;;;;;;13.27;2.20;;;10.80;99.90;;;;;;5062904;28;25121;-61
2021/09/30 04:25:25;;;;;;;13.45;2.75;;;10.80;99.90;;;;;;5064098;28;25086;-60
2021/09/30 04:27:51;;;;;;;10.30;2.20;;;10.70;99.90;;;;;;5062864;28;25076;-60
2021/09/30 04:30:16;;;;;;;10.75;2.00;;;10.80;99.90;;;;;;5066835;28;25063;-61
2021/09/30 04:32:42;;;;;;;10.60;2.20;;;10.70;99.90;;;;;;5066722;28;25103;-61
2021/09/30 04:35:08;;;;;;;8.25;2.55;;;10.70;99.90;;;;;;5076706;28;25074;-61
2021/09/30 04:37:33;;;;;;;12.05;2.28;;;10.80;99.90;;;;;;5089187;22;25102;-68
2021/09/30 04:39:59;;;;;;;13.27;2.75;;;10.80;99.90;;;;;;5065397;28;25103;-69
2021/09/30 04:42:24;;;;;;;10.15;2.10;;;10.80;99.90;;;;;;5065057;28;25096;-69
2021/09/30 04:44:50;;;;;;;17.17;2.13;;;10.90;99.90;;;;;;5056258;28;25163;-70
2021/09/30 04:47:15;;;;;;;14.55;2.42;;;10.90;99.90;;;;;;5039547;28;25099;-70
2021/09/30 04:49:42;;;;;;;12.40;2.45;;;11.00;99.90;;;;;;5046404;28;25106;-70
2021/09/30 04:52:08;;;;;;;8.68;2.17;;;11.00;99.90;;;;;;5040694;28;25127;-70
2021/09/30 04:54:34;;;;;;;11.23;2.33;;;10.90;99.90;;;;;;5043605;28;25081;-69
2021/09/30 04:57:00;;;;;;;13.43;2.10;;;10.90;99.90;;;;;;5047425;28;25158;-69
2021/09/30 04:59:25;;;;;;;14.13;2.53;;;10.90;99.90;;;;;;5042673;28;25103;-70
2021/09/30 05:01:51;;;;;;;10.23;2.28;;;10.90;99.90;;;;;;5035614;28;25132;-70
2021/09/30 05:04:16;;;;;;;9.63;2.13;;;11.00;99.90;;;;;;5031705;28;25063;-70
2021/09/30 05:06:42;;;;;;;12.05;2.28;;;11.10;99.90;;;;;;5028031;28;25056;-70
2021/09/30 05:09:08;;;;;;;13.82;2.28;;;11.20;99.90;;;;;;5045726;28;25140;-69
2021/09/30 05:11:38;;;;;;;9.43;2.45;;;11.20;99.90;;;;;;5038486;28;25096;-70
2021/09/30 05:14:04;;;;;;;13.25;2.75;;;11.10;99.90;;;;;;5039577;28;25062;-69
2021/09/30 05:16:30;;;;;;;12.43;2.45;;;11.00;99.90;;;;;;5031833;28;25075;-69
2021/09/30 05:18:56;;;;;;;12.23;2.85;;;11.00;99.90;;;;;;5046857;28;25068;-69
2021/09/30 05:21:23;;;;;;;15.55;2.35;;;10.90;99.90;;;;;;5048598;28;25084;-69
2021/09/30 05:23:49;;;;;;;11.00;2.60;;;10.90;99.90;;;;;;5032761;28;25103;-69
2021/09/30 05:26:15;;;;;;;12.05;2.38;;;10.90;99.90;;;;;;5042586;28;25117;-70
2021/09/30 05:28:41;;;;;;;6.32;2.53;;;10.80;99.90;;;;;;5038808;28;25126;-69
2021/09/30 05:31:06;;;;;;;7.35;2.85;;;10.80;99.90;;;;;;5034549;28;25061;-70
2021/09/30 05:33:32;;;;;;;15.60;3.58;;;10.80;99.90;;;;;;5033828;28;25146;-69
2021/09/30 05:35:58;;;;;;;11.00;2.40;;;10.70;99.90;;;;;;5030680;28;25068;-69
2021/09/30 05:38:24;;;;;;;10.00;2.85;;;10.70;99.90;;;;;;5039539;28;25071;-70
2021/09/30 05:40:49;;;;;;;11.88;2.83;;;10.70;99.90;;;;;;5047084;28;25066;-69
2021/09/30 05:43:23;;;;;;;15.55;4.07;;;10.60;99.90;;;;;;5045320;28;25077;-70
2021/09/30 05:45:55;;;;;;;13.88;3.65;;;10.60;99.90;;;;;;5046231;28;25070;-68
2021/09/30 05:48:20;;;;;;;13.60;2.92;;;10.50;99.90;;;;;;5036685;28;25070;-70
2021/09/30 05:50:46;;;;;;;19.02;3.50;;;10.50;99.90;;;;;;5046499;28;25068;-69
2021/09/30 05:53:12;;;;;;;12.15;3.55;;;10.50;99.90;;;;;;5024489;28;25162;-69
2021/09/30 05:55:38;;;;;;;13.90;3.40;;;10.50;99.90;;;;;;5043608;28;25093;-70
2021/09/30 05:58:04;;;;;;;11.57;3.33;;;10.50;99.90;;;;;;5027500;28;25144;-70
2021/09/30 06:10:54;;;;;;;14.38;3.90;;;10.40;99.90;;;;;;5049134;28;25095;-69
2021/09/30 06:16:25;;;;;;;19.27;4.53;;;10.40;99.90;;;;;;4986765;28;25086;-70
2021/09/30 06:18:51;;;;;;;19.65;4.43;;;10.50;99.90;;;;;;4987097;28;25066;-69
2021/09/30 06:21:17;;;;;;;24.33;4.90;;;10.40;99.90;;;;;;5009260;28;25144;-70
2021/09/30 06:23:42;;;;;;;13.35;4.65;;;10.40;99.90;;;;;;5049796;28;25101;-70
2021/09/30 06:26:08;;;;;;;7.50;3.78;;;10.40;99.90;;;;;;5047907;28;25112;-68
2021/09/30 06:28:34;;;;;;;13.38;5.75;;;10.50;99.90;;;;;;5050174;28;25068;-69
2021/09/30 06:30:59;;;;;;;13.60;4.60;;;10.50;99.90;;;;;;5050258;28;25097;-71
2021/09/30 06:33:25;;;;;;;15.15;5.00;;;10.50;99.90;;;;;;5039574;28;25072;-69
2021/09/30 06:35:51;;;;;;;16.02;4.55;;;10.40;99.90;;;;;;5049389;28;25097;-70
2021/09/30 06:38:17;;;;;;;12.80;4.82;;;10.50;99.90;;;;;;5027669;28;25145;-68
2021/09/30 06:40:43;;;;;;;17.65;4.93;;;10.40;99.90;;;;;;5047880;28;25058;-70
2021/09/30 06:43:08;;;;;;;12.75;4.88;;;10.50;99.90;;;;;;5049336;28;25086;-69
2021/09/30 06:45:34;;;;;;;18.05;5.10;;;10.60;99.90;;;;;;5041889;28;25125;-69
2021/09/30 06:47:59;;;;;;;14.18;4.57;;;10.60;99.90;;;;;;5036915;28;25112;-71
2021/09/30 06:50:26;;;;;;;11.93;4.70;;;10.60;99.90;;;;;;5048578;28;25080;-69
2021/09/30 06:52:51;;;;;;;12.45;4.95;;;10.70;99.90;;;;;;5032969;28;25120;-70
2021/09/30 06:55:17;;;;;;;15.82;5.53;;;10.70;99.90;;;;;;5035453;28;25087;-70
2021/09/30 06:57:43;;;;;;;12.52;4.65;;;10.70;99.90;;;;;;5046081;28;25104;-70
2021/09/30 07:00:10;;;;;;;15.27;5.90;;;10.70;99.90;;;;;;5044562;28;25072;-68
2021/09/30 07:02:40;;;;;;;13.75;4.95;;;10.70;99.90;;;;;;5042316;28;25110;-69
2021/09/30 07:05:08;;;;;;;13.93;5.38;;;10.70;99.90;;;;;;5026537;28;25044;-69
2021/09/30 07:07:34;;;;;;;14.60;5.05;;;10.80;99.90;;;;;;5044902;28;25130;-70
2021/09/30 07:10:02;;;;;;;17.02;5.63;;;10.80;99.90;;;;;;5048772;28;25083;-70
2021/09/30 07:12:27;;;;;;;12.68;4.80;;;10.90;99.90;;;;;;5045447;28;25076;-69
2021/09/30 07:14:53;;;;;;;16.60;4.70;;;10.90;99.90;;;;;;5049215;28;25141;-68
2021/09/30 07:17:18;;;;;;;9.93;4.75;;;11.00;99.90;;;;;;5048773;28;25111;-69
2021/09/30 07:19:44;;;;;;;11.65;4.40;;;11.00;99.90;;;;;;5046754;28;25138;-70
2021/09/30 07:22:09;;;;;;;10.63;4.28;;;11.10;99.90;;;;;;5039584;28;25081;-69
2021/09/30 07:24:39;;;;;;;16.27;5.28;;;11.10;99.90;;;;;;5047521;28;25087;-70
2021/09/30 07:27:09;;;;;;;17.55;5.78;;;11.20;99.90;;;;;;5048718;28;25119;-69
2021/09/30 07:29:35;;;;;;;16.40;5.47;;;11.30;99.90;;;;;;5031910;28;25073;-70
2021/09/30 07:32:01;;;;;;;15.60;4.93;;;11.40;99.90;;;;;;5053407;28;25110;-72
2021/09/30 07:34:27;;;;;;;12.15;4.18;;;11.40;99.90;;;;;;5047416;28;25078;-71
2021/09/30 07:36:53;;;;;;;12.68;4.15;;;11.30;99.90;;;;;;5039542;28;25074;-70
2021/09/30 07:39:19;;;;;;;13.07;4.75;;;11.30;99.90;;;;;;5046029;28;25078;-71
2021/09/30 07:41:46;;;;;;;14.48;4.57;;;11.30;99.90;;;;;;5047713;28;25121;-71
2021/09/30 07:44:12;;;;;;;13.55;4.25;;;11.30;99.90;;;;;;5037630;28;25065;-69
2021/09/30 07:46:39;;;;;;;13.77;4.38;;;11.40;99.90;;;;;;5048733;28;25066;-69
2021/09/30 07:49:06;;;;;;;14.57;4.60;;;11.50;99.90;;;;;;5047605;28;25087;-69
2021/09/30 07:51:32;;;;;;;10.52;3.92;;;11.50;99.90;;;;;;5044362;28;25074;-69
2021/09/30 07:53:58;;;;;;;19.15;4.65;;;11.60;99.90;;;;;;5039478;28;25080;-70
2021/09/30 07:56:24;;;;;;;15.40;4.55;;;11.60;99.90;;;;;;5044510;28;25095;-69
2021/09/30 07:58:50;;;;;;;14.73;4.53;;;11.80;99.90;;;;;;5042946;28;25058;-68
2021/09/30 08:01:16;;;;;;;19.92;4.43;;;11.90;99.90;;;;;;5027182;28;25116;-70
2021/09/30 08:03:41;;;;;;;14.27;4.38;;;12.00;99.90;;;;;;5035579;28;25115;-68
2021/09/30 08:06:07;;;;;;;20.83;4.30;;;12.10;99.90;;;;;;5046401;28;25129;-67
2021/09/30 08:08:34;;;;;;;10.57;4.28;;;12.20;99.90;;;;;;5048012;28;25062;-70
2021/09/30 08:10:59;;;;;;;14.40;3.70;;;12.30;99.90;;;;;;5035788;28;25077;-71
2021/09/30 08:13:26;;;;;;;12.50;3.63;;;12.40;99.90;;;;;;5042057;28;25068;-70
2021/09/30 08:15:51;;;;;;;11.00;3.20;;;12.50;99.90;;;;;;5043968;28;25064;-69
2021/09/30 08:18:17;;;;;;;9.80;3.22;;;12.50;99.90;;;;;;5045054;28;25178;-68
2021/09/30 08:20:43;;;;;;;17.08;4.03;;;12.50;99.90;;;;;;5043542;28;25073;-69
2021/09/30 08:23:11;;;;;;;11.80;3.60;;;12.60;99.90;;;;;;5030170;28;25061;-68
2021/09/30 08:25:37;;;;;;;10.02;3.22;;;12.60;99.90;;;;;;5040496;28;25080;-70
2021/09/30 08:28:03;;;;;;;8.38;3.70;;;12.80;99.90;;;;;;5043142;28;25112;-67
2021/09/30 08:30:30;;;;;;;12.88;3.35;;;13.00;99.90;;;;;;5042189;28;25145;-70
2021/09/30 08:32:55;;;;;;;14.88;3.65;;;13.00;99.90;;;;;;5046048;28;25102;-68
2021/09/30 08:35:23;;;;;;;14.00;4.20;;;13.00;99.90;;;;;;5047197;28;25136;-69
2021/09/30 08:37:49;;;;;;;11.93;3.22;;;13.00;99.90;;;;;;5044271;28;25131;-68
2021/09/30 08:40:15;;;;;;;15.18;3.33;;;12.80;99.90;;;;;;5047865;28;25082;-69
2021/09/30 08:42:44;;;;;;;13.80;2.97;;;12.80;99.90;;;;;;5039855;28;25123;-69
2021/09/30 08:45:11;;;;;;;23.38;4.35;;;12.90;99.90;;;;;;5040835;28;25068;-71
2021/09/30 08:47:36;;;;;;;8.20;2.70;;;12.80;99.90;;;;;;5034124;28;25069;-69
2021/09/30 08:50:03;;;;;;;12.52;3.30;;;12.70;99.90;;;;;;5043980;28;25078;-68
2021/09/30 08:52:29;;;;;;;12.90;3.22;;;12.80;99.90;;;;;;5045881;28;25087;-69
2021/09/30 08:54:55;;;;;;;9.02;2.80;;;12.80;99.90;;;;;;5040126;28;25138;-70
2021/09/30 08:57:21;;;;;;;13.60;3.30;;;12.80;99.90;;;;;;5047503;28;25072;-68
2021/09/30 09:00:08;;;;;;;11.25;3.55;;;12.80;99.90;;;;;;5048477;28;25061;-69
2021/09/30 09:02:45;;;;;;;12.07;2.63;;;12.80;99.90;;;;;;5046985;28;25068;-69
2021/09/30 09:05:11;;;;;;;10.00;2.97;;;12.80;99.90;;;;;;5049031;28;25053;-69
2021/09/30 09:07:37;;;;;;;12.90;3.78;;;12.80;99.90;;;;;;5034341;28;25071;-70
2021/09/30 09:10:09;;;;;;;15.20;3.20;;;12.80;99.90;;;;;;5048050;28;25065;-69
2021/09/30 09:12:35;;;;;;;7.53;2.85;;;12.90;99.90;;;;;;5044850;28;25149;-69
2021/09/30 09:15:03;;;;;;;8.50;2.78;;;12.90;99.90;;;;;;5027610;28;25093;-71
2021/09/30 09:17:30;;;;;;;12.10;3.28;;;12.90;99.90;;;;;;5041617;28;25068;-69
2021/09/30 09:20:01;;;;;;;8.75;2.85;;;12.90;99.90;;;;;;5026276;28;25056;-70
2021/09/30 09:22:36;;;;;;;6.97;2.70;;;12.90;99.90;;;;;;5047389;28;25144;-69
2021/09/30 09:25:07;;;;;;;11.95;3.15;;;12.90;99.90;;;;;;5051977;28;25172;-70
2021/09/30 09:27:55;;;;;;;11.48;2.80;;;12.90;99.90;;;;;;5045068;28;25104;-69
2021/09/30 09:30:35;;;;;;;10.90;3.03;;;12.90;99.90;;;;;;5041348;28;25102;-70
2021/09/30 09:33:02;;;;;;;12.25;3.55;;;13.00;99.90;;;;;;5040608;28;25056;-69
2021/09/30 09:35:28;;;;;;;12.68;3.13;;;13.00;99.90;;;;;;5043116;28;25095;-70
2021/09/30 09:38:02;;;;;;;12.18;2.95;;;13.00;99.90;;;;;;5050648;28;25057;-70
2021/09/30 09:40:27;;;;;;;7.32;2.50;;;13.00;99.90;;;;;;5047544;28;25148;-71
2021/09/30 09:42:53;;;;;;;9.75;2.95;;;13.20;99.90;;;;;;5050567;28;25065;-68
2021/09/30 09:45:18;;;;;;;10.13;2.85;;;13.20;99.90;;;;;;5048201;28;25123;-69
2021/09/30 09:47:44;;;;;;;12.25;3.20;;;13.30;99.90;;;;;;5048761;28;25086;-69
2021/09/30 09:50:17;;;;;;;10.98;2.70;;;13.40;99.90;;;;;;5037206;28;25089;-69
2021/09/30 09:52:53;;;;;;;11.75;2.63;;;13.40;99.90;;;;;;5049831;28;25079;-68
2021/09/30 09:55:31;;;;;;;6.70;2.35;;;13.40;99.90;;;;;;5051353;28;25058;-70
2021/09/30 09:58:11;;;;;;;9.45;2.40;;;13.50;99.90;;;;;;5034610;28;25069;-71
2021/09/30 10:00:49;;;;;;;6.88;2.28;;;13.60;99.90;;;;;;5051042;28;25124;-70
2021/09/30 10:03:17;;;;;;;7.88;2.75;;;13.60;99.90;;;;;;5048096;28;25104;-69
2021/09/30 10:05:45;;;;;;;8.32;2.85;;;13.60;99.90;;;;;;5045219;28;25108;-68
2021/09/30 10:08:12;;;;;;;8.18;2.55;;;13.60;99.90;;;;;;5026822;28;25064;-68
2021/09/30 10:10:38;;;;;;;5.78;1.95;;;13.70;99.90;;;;;;5040674;28;25063;-68
2021/09/30 10:13:05;;;;;;;7.15;2.30;;;13.70;99.90;;;;;;5046674;28;25176;-70
2021/09/30 10:15:32;;;;;;;11.40;2.30;;;13.70;99.90;;;;;;5047610;28;25082;-69
2021/09/30 10:17:57;;;;;;;11.70;2.92;;;13.70;99.90;;;;;;5045943;28;25066;-68
2021/09/30 10:20:24;;;;;;;9.38;2.38;;;13.60;99.90;;;;;;5042468;28;25053;-68
2021/09/30 10:22:51;;;;;;;10.55;2.42;;;13.60;99.90;;;;;;4999314;28;25173;-71
2021/09/30 10:25:17;;;;;;;18.38;3.10;;;13.60;99.90;;;;;;5039733;28;25055;-69
2021/09/30 10:27:44;;;;;;;9.45;2.35;;;13.60;99.90;;;;;;5048023;28;25076;-68
2021/09/30 10:30:37;;;;;;;13.43;2.42;;;13.70;99.90;;;;;;5052931;28;25061;-68
2021/09/30 10:33:11;;;;;;;9.00;2.35;;;13.70;99.90;;;;;;5040442;28;25056;-68
2021/09/30 10:35:44;;;;;;;6.72;2.17;;;13.60;99.90;;;;;;5046659;28;25059;-67
2021/09/30 10:38:29;;;;;;;9.50;2.72;;;13.70;99.90;;;;;;5060564;22;25083;-59
2021/09/30 10:41:00;;;;;;;9.60;2.25;;;13.70;99.90;;;;;;5022496;28;25109;-61
2021/09/30 10:43:31;;;;;;;7.32;2.40;;;13.60;99.90;;;;;;5025011;28;25063;-63
2021/09/30 10:45:57;;;;;;;8.80;2.35;;;13.50;99.90;;;;;;5025009;28;25130;-62
2021/09/30 10:48:23;;;;;;;8.07;2.03;;;13.50;99.90;;;;;;5030693;28;25081;-61
2021/09/30 10:50:59;;;;;;;5.28;2.03;;;13.50;99.90;;;;;;5032851;28;25098;-61
2021/09/30 10:53:46;;;;;;;7.38;1.88;;;13.40;99.90;;;;;;5043779;28;25047;-62
2021/09/30 10:56:30;;;;;;;12.57;2.47;;;13.50;99.90;;;;;;5031082;28;25049;-61
2021/09/30 10:58:59;;;;;;;13.30;2.53;;;13.60;99.90;;;;;;5009123;28;25071;-61
2021/09/30 11:01:25;;;;;;;9.38;2.22;;;13.80;99.90;;;;;;5027679;28;25070;-60
2021/09/30 11:03:58;;;;;;;6.32;1.92;;;13.90;99.90;;;;;;5027516;28;25060;-60
2021/09/30 11:06:25;;;;;;;9.93;2.30;;;13.80;99.90;;;;;;5040962;28;25082;-63
2021/09/30 11:09:11;;;;;;;13.38;2.40;;;13.90;99.90;;;;;;5028164;28;25060;-61
2021/09/30 11:11:37;;;;;;;11.73;2.00;;;13.90;99.90;;;;;;5047590;28;25116;-62
2021/09/30 11:14:07;;;;;;;10.23;1.70;;;13.90;99.90;;;;;;5027050;28;25146;-60
2021/09/30 11:16:42;;;;;;;7.50;2.10;;;13.90;99.90;;;;;;5023422;28;25064;-61
2021/09/30 11:19:31;;;;;;;9.32;2.10;;;13.90;99.90;;;;;;5026881;28;25100;-60
2021/09/30 11:22:03;;;;;;;10.10;2.40;;;13.90;99.90;;;;;;5048316;28;25078;-61
2021/09/30 11:24:31;;;;;;;8.98;2.10;;;13.80;99.90;;;;;;5034310;28;25111;-61
2021/09/30 11:26:57;;;;;;;8.23;2.22;;;13.80;99.90;;;;;;5041109;28;25080;-60
2021/09/30 11:29:22;;;;;;;6.93;1.98;;;13.80;99.90;;;;;;5039355;28;25105;-61
2021/09/30 11:31:58;;;;;;;8.48;2.35;;;13.80;99.90;;;;;;5040983;28;25066;-61
2021/09/30 11:34:30;;;;;;;8.77;2.35;;;13.80;99.90;;;;;;5036719;28;25112;-61
2021/09/30 11:36:57;;;;;;;;;;;13.90;99.90;;;;;;5038603;28;25079;-61
2021/09/30 11:39:31;;;;;;;14.70;2.28;;;14.00;99.90;;;;;;5039729;28;25137;-60
2021/09/30 11:41:56;;;;;;;10.18;2.50;;;14.00;99.90;;;;;;5036064;28;25138;-61
2021/09/30 11:44:22;;;;;;;15.45;2.40;;;13.90;99.90;;;;;;5042907;28;25088;-61
2021/09/30 11:46:56;;;;;;;7.03;1.60;;;13.90;99.90;;;;;;5031677;28;25053;-61
2021/09/30 11:49:22;;;;;;;10.38;2.72;;;14.00;99.90;;;;;;5034278;28;25065;-61
2021/09/30 11:51:50;;;;;;;9.10;2.42;;;14.10;99.90;;;;;;5026226;28;25062;-60
2021/09/30 11:54:17;;;;;;;8.25;1.90;;;14.20;99.90;;;;;;5028833;28;25075;-61
2021/09/30 11:56:49;;;;;;;7.82;1.90;;;14.20;99.90;;;;;;5035243;28;25083;-61
2021/09/30 11:59:17;;;;;;;6.53;2.15;;;14.10;99.90;;;;;;5031200;28;25128;-61
2021/09/30 12:01:48;;;;;;;12.48;2.10;;;14.20;99.90;;;;;;5029806;28;25135;-61
2021/09/30 12:04:28;;;;;;;14.80;2.50;;;14.30;99.90;;;;;;5025771;28;25150;-64
2021/09/30 12:06:54;;;;;;;5.97;2.35;;;14.30;99.90;;;;;;5039210;28;25084;-61
2021/09/30 12:09:20;;;;;;;11.60;2.25;;;14.20;99.90;;;;;;5033382;28;25066;-61
2021/09/30 12:11:55;;;;;;;11.00;2.92;;;14.10;99.90;;;;;;5038071;28;25067;-61
2021/09/30 12:14:22;;;;;;;9.10;2.28;;;14.20;99.90;;;;;;5042714;28;25073;-60
2021/09/30 12:17:02;;;;;;;16.73;2.70;;;14.30;99.90;;;;;;5040147;28;25150;-60
2021/09/30 12:19:28;;;;;;;11.05;2.28;;;14.10;99.90;;;;;;5028397;28;25070;-62
2021/09/30 12:21:54;;;;;;;12.02;2.55;;;14.10;99.90;;;;;;5047338;28;25058;-61
2021/09/30 12:24:20;;;;;;;9.98;2.47;;;14.10;99.90;;;;;;5037210;28;25099;-60
2021/09/30 12:26:45;;;;;;;11.13;2.00;;;14.10;99.90;;;;;;5042593;28;25072;-60
2021/09/30 12:29:11;;;;;;;9.55;2.15;;;14.10;99.90;;;;;;5037236;28;25064;-60
2021/09/30 12:31:37;;;;;;;11.98;2.70;;;14.20;99.90;;;;;;5040493;28;25135;-61
2021/09/30 12:34:21;;;;;;;14.13;2.17;;;14.20;99.90;;;;;;5030519;28;25150;-61
2021/09/30 12:36:47;;;;;;;7.53;1.95;;;14.20;99.90;;;;;;5036332;28;25074;-60
2021/09/30 12:39:12;;;;;;;7.82;1.70;;;14.20;99.90;;;;;;5035747;28;25072;-60
2021/09/30 12:41:38;;;;;;;7.85;1.80;;;14.30;99.90;;;;;;5031408;28;25077;-62
2021/09/30 12:44:12;;;;;;;11.82;2.08;;;14.30;99.90;;;;;;5031434;28;25124;-61
2021/09/30 12:46:46;;;;;;;9.10;1.90;;;14.30;99.90;;;;;;5041077;28;25100;-61
2021/09/30 12:49:11;;;;;;;6.72;2.15;;;14.40;99.90;;;;;;5030374;28;25070;-60
2021/09/30 12:51:37;;;;;;;10.13;2.47;;;14.40;99.90;;;;;;5036398;28;25142;-62
2021/09/30 12:54:02;;;;;;;8.15;2.47;;;14.70;99.90;;;;;;5021224;28;25066;-60
2021/09/30 12:56:31;;;;;;;8.68;2.28;;;14.70;99.90;;;;;;5029454;28;25111;-61
2021/09/30 12:59:10;;;;;;;7.82;1.98;;;14.60;99.90;;;;;;5028668;28;25083;-61
2021/09/30 13:01:36;;;;;;;10.80;1.90;;;14.60;99.90;;;;;;5033962;28;25060;-60
2021/09/30 13:04:24;;;;;;;9.35;2.17;;;14.70;99.90;;;;;;5038110;28;25050;-60
2021/09/30 13:07:03;;;;;;;13.55;2.17;;;14.70;99.90;;;;;;5042458;28;25078;-60
2021/09/30 13:09:38;;;;;;;12.82;2.78;;;14.50;99.90;;;;;;5037606;28;25084;-61
2021/09/30 13:12:15;;;;;;;11.18;2.20;;;14.50;99.90;;;;;;5028743;28;25059;-61
2021/09/30 13:14:45;;;;;;;11.27;2.13;;;14.50;99.90;;;;;;5039332;28;25071;-62
2021/09/30 13:17:14;;;;;;;9.85;2.33;;;14.50;99.90;;;;;;5036912;28;25078;-61
2021/09/30 13:19:52;;;;;;;9.50;2.00;;;14.50;99.90;;;;;;5039335;28;25070;-61
2021/09/30 13:22:22;;;;;;;10.52;2.20;;;14.40;99.90;;;;;;5036406;28;25057;-62
2021/09/30 13:24:51;;;;;;;6.97;2.10;;;14.50;99.90;;;;;;5032133;28;25119;-63
2021/09/30 13:27:23;;;;;;;8.60;1.90;;;14.50;99.90;;;;;;5040561;28;25081;-60
2021/09/30 13:29:52;;;;;;;9.05;2.38;;;14.50;99.90;;;;;;5038736;28;25056;-62
2021/09/30 13:32:19;;;;;;;9.25;1.88;;;14.50;99.90;;;;;;5018124;28;25047;-62
2021/09/30 13:34:44;;;;;;;10.45;2.45;;;14.40;99.90;;;;;;5040773;28;25065;-61
2021/09/30 13:37:11;;;;;;;15.48;2.13;;;14.30;99.90;;;;;;5047500;28;25144;-60
2021/09/30 13:39:37;;;;;;;12.45;2.28;;;14.40;99.90;;;;;;5039463;28;25143;-62
2021/09/30 13:42:03;;;;;;;7.25;1.98;;;14.40;99.90;;;;;;5034895;28;25112;-60
2021/09/30 13:44:28;;;;;;;11.93;2.35;;;14.50;99.90;;;;;;5035936;28;25141;-63
2021/09/30 13:46:54;;;;;;;7.97;2.60;;;14.50;99.90;;;;;;5034455;28;25145;-61
2021/09/30 13:49:19;;;;;;;9.55;2.42;;;14.50;99.90;;;;;;5034253;28;25058;-61
2021/09/30 13:51:45;;;;;;;8.18;1.98;;;14.50;99.90;;;;;;5032977;28;25142;-61
2021/09/30 13:54:11;;;;;;;11.90;2.05;;;14.40;99.90;;;;;;5038516;28;25080;-60
2021/09/30 13:56:36;;;;;;;9.40;2.33;;;14.50;99.90;;;;;;5040385;28;25091;-62
2021/09/30 13:59:03;;;;;;;10.00;2.13;;;14.50;99.90;;;;;;5024709;28;25116;-62
2021/09/30 14:01:28;;;;;;;11.13;2.13;;;14.40;99.90;;;;;;5034662;28;25051;-61
2021/09/30 14:03:54;;;;;;;10.20;2.00;;;14.30;99.90;;;;;;5026762;28;25058;-62
2021/09/30 14:06:21;;;;;;;8.75;1.83;;;14.30;99.90;;;;;;5035001;28;25093;-61
2021/09/30 14:08:49;;;;;;;10.32;2.13;;;14.30;99.90;;;;;;5052318;28;25093;-61
2021/09/30 14:11:15;;;;;;;10.10;1.65;;;14.40;99.90;;;;;;5008161;28;25123;-61
2021/09/30 14:13:42;;;;;;;7.15;1.77;;;14.50;99.90;;;;;;5037904;28;25050;-61
2021/09/30 14:16:08;;;;;;;9.25;1.77;;;14.50;99.90;;;;;;5030376;28;25076;-61
2021/09/30 14:18:34;;;;;;;8.13;2.22;;;14.50;99.90;;;;;;5039481;28;25078;-60
2021/09/30 14:21:00;;;;;;;12.10;2.28;;;14.50;99.90;;;;;;5041290;28;25049;-61
2021/09/30 14:23:26;;;;;;;8.95;2.00;;;14.50;99.90;;;;;;5041480;28;25079;-60
2021/09/30 14:25:53;;;;;;;10.45;2.80;;;14.40;99.90;;;;;;5042832;28;25075;-61
2021/09/30 14:28:19;;;;;;;8.93;1.80;;;14.40;99.90;;;;;;5038688;28;25079;-60
2021/09/30 14:30:45;;;;;;;5.75;1.98;;;14.40;99.90;;;;;;5043565;28;25082;-60
2021/09/30 14:33:10;;;;;;;9.48;1.70;;;14.40;99.90;;;;;;5041758;28;25137;-61
2021/09/30 14:35:37;;;;;;;9.82;1.60;;;14.40;99.90;;;;;;5031270;28;25030;-61
2021/09/30 14:38:04;;;;;;;10.25;2.20;;;14.40;99.90;;;;;;5044454;28;25157;-61
2021/09/30 14:40:29;;;;;;;4.40;1.50;;;14.40;99.90;;;;;;5039255;28;25056;-61
2021/09/30 14:42:55;;;;;;;9.48;2.10;;;14.40;99.90;;;;;;5042300;28;25064;-61
2021/09/30 14:45:21;;;;;;;9.88;1.65;;;14.40;99.90;;;;;;5031384;28;25107;-61
2021/09/30 14:47:47;;;;;;;8.73;2.20;;;14.50;99.90;;;;;;5031301;28;25069;-61
2021/09/30 14:50:12;;;;;;;12.27;2.15;;;14.50;99.90;;;;;;5031359;28;25127;-61
2021/09/30 14:52:38;;;;;;;10.23;1.92;;;14.60;99.90;;;;;;5037818;28;25124;-60
2021/09/30 14:55:04;;;;;;;9.63;2.00;;;14.50;99.90;;;;;;5033064;28;25075;-61
2021/09/30 14:57:30;;;;;;;7.45;1.90;;;14.40;99.90;;;;;;5034456;28;25158;-62
2021/09/30 14:59:55;;;;;;;9.93;3.20;;;14.30;99.90;;;;;;5028514;28;25102;-60
2021/09/30 15:02:21;;;;;;;12.98;2.08;;;14.40;99.90;;;;;;5033947;28;25060;-61
2021/09/30 15:04:47;;;;;;;9.55;2.03;;;14.40;99.90;;;;;;5035954;28;25067;-60
2021/09/30 15:07:12;;;;;;;8.35;2.05;;;14.40;99.90;;;;;;5047418;28;25085;-61
2021/09/30 15:09:38;;;;;;;7.85;2.30;;;14.40;99.90;;;;;;5032631;28;25071;-61
2021/09/30 15:12:04;;;;;;;10.77;1.90;;;14.40;99.90;;;;;;5047753;28;25057;-61
2021/09/30 15:14:29;;;;;;;8.48;1.90;;;14.40;99.90;;;;;;5042343;28;25153;-62
2021/09/30 15:19:25;;;;;;;7.70;2.03;;;14.40;99.90;;;;;;5031983;28;25058;-61
2021/09/30 15:21:52;;;;;;;9.60;2.67;;;14.40;99.90;;;;;;5039517;28;25088;-62
2021/09/30 15:24:18;;;;;;;8.32;2.05;;;14.40;99.90;;;;;;5026929;28;25143;-61
2021/09/30 15:26:45;;;;;;;15.75;2.33;;;14.50;99.90;;;;;;5027169;28;25116;-61
2021/09/30 15:29:11;;;;;;;6.72;1.92;;;14.50;99.90;;;;;;5038408;28;25060;-62
2021/09/30 15:31:40;;;;;;;6.22;2.00;;;14.50;99.90;;;;;;5040489;28;25156;-62
2021/09/30 15:34:06;;;;;;;6.65;1.90;;;14.50;99.90;;;;;;5038415;28;25073;-61
2021/09/30 15:36:32;;;;;;;8.23;2.03;;;14.50;99.90;;;;;;5020794;28;25070;-61
2021/09/30 15:39:01;;;;;;;9.45;1.83;;;14.50;99.90;;;;;;5034900;28;25074;-62